Allerton, Illinois
Current Conditions -  °F | °C
As of 3:53 PM on Tuesday 25 Nov 2014 (Local Time) from KCMI Reporting Station
Overcast Overcast  
Wind Chill: 19°   Ceiling: 1500
Heat Index: 27°   Visibility: 10mi
Dew Point: 21°   Wind: 8mph
Humidity: 78%   Direction: 300°WNW
Pressure: 30.15"   Gusts: NA
Location:  39.91°N, 87.94°W
Report Text: KCMI 252153Z 30007KT 10SM OVC015 M03/M06 A3015 RMK AO2 SLP220 T10281061 $
Loading
Personal Weather Stations






























Interactive Weather Map New forecast layout! Learn more

10-Day Weather Forecast

Advertisements
Track Severe Weather on mobile